sensor_id;sensor_type;location;lat;lon;timestamp;P1;durP1;ratioP1;P2;durP2;ratioP2
49340;SDS011;35209;51.050;13.678;2023-07-24T00:00:09;2.38;;;2.17;;
49340;SDS011;35209;51.050;13.678;2023-07-24T00:05:11;2.78;;;2.50;;
49340;SDS011;35209;51.050;13.678;2023-07-24T00:10:13;2.25;;;2.05;;
49340;SDS011;35209;51.050;13.678;2023-07-24T00:15:15;2.20;;;2.00;;
49340;SDS011;35209;51.050;13.678;2023-07-24T00:20:17;2.03;;;1.92;;
49340;SDS011;35209;51.050;13.678;2023-07-24T00:25:19;2.42;;;2.22;;
49340;SDS011;35209;51.050;13.678;2023-07-24T00:30:20;2.25;;;2.05;;
49340;SDS011;35209;51.050;13.678;2023-07-24T00:35:24;2.63;;;2.42;;
49340;SDS011;35209;51.050;13.678;2023-07-24T00:40:30;2.22;;;2.03;;
49340;SDS011;35209;51.050;13.678;2023-07-24T00:45:32;2.85;;;2.30;;
49340;SDS011;35209;51.050;13.678;2023-07-24T00:50:34;3.72;;;2.35;;
49340;SDS011;35209;51.050;13.678;2023-07-24T00:55:37;2.60;;;2.40;;
49340;SDS011;35209;51.050;13.678;2023-07-24T01:00:40;2.50;;;2.30;;
49340;SDS011;35209;51.050;13.678;2023-07-24T01:05:42;6.65;;;2.20;;
49340;SDS011;35209;51.050;13.678;2023-07-24T01:10:46;2.70;;;2.50;;
49340;SDS011;35209;51.050;13.678;2023-07-24T01:20:53;2.58;;;2.38;;
49340;SDS011;35209;51.050;13.678;2023-07-24T01:25:58;2.50;;;2.30;;
49340;SDS011;35209;51.050;13.678;2023-07-24T01:31:01;2.10;;;1.90;;
49340;SDS011;35209;51.050;13.678;2023-07-24T01:36:03;2.70;;;1.98;;
49340;SDS011;35209;51.050;13.678;2023-07-24T01:41:05;2.15;;;2.05;;
49340;SDS011;35209;51.050;13.678;2023-07-24T01:46:07;2.80;;;2.50;;
49340;SDS011;35209;51.050;13.678;2023-07-24T01:51:10;2.10;;;2.00;;
49340;SDS011;35209;51.050;13.678;2023-07-24T01:56:12;2.75;;;2.10;;
49340;SDS011;35209;51.050;13.678;2023-07-24T02:01:13;2.75;;;2.28;;
49340;SDS011;35209;51.050;13.678;2023-07-24T02:06:16;2.58;;;2.38;;
49340;SDS011;35209;51.050;13.678;2023-07-24T02:11:18;2.47;;;2.28;;
49340;SDS011;35209;51.050;13.678;2023-07-24T02:16:21;2.58;;;2.38;;
49340;SDS011;35209;51.050;13.678;2023-07-24T02:21:23;2.63;;;2.42;;
49340;SDS011;35209;51.050;13.678;2023-07-24T02:26:25;3.08;;;2.10;;
49340;SDS011;35209;51.050;13.678;2023-07-24T02:31:26;2.70;;;2.50;;
49340;SDS011;35209;51.050;13.678;2023-07-24T02:36:30;2.67;;;2.47;;
49340;SDS011;35209;51.050;13.678;2023-07-24T02:41:32;2.63;;;2.42;;
49340;SDS011;35209;51.050;13.678;2023-07-24T02:46:34;2.65;;;2.40;;
49340;SDS011;35209;51.050;13.678;2023-07-24T02:51:36;2.95;;;2.55;;
49340;SDS011;35209;51.050;13.678;2023-07-24T02:56:37;2.17;;;2.08;;
49340;SDS011;35209;51.050;13.678;2023-07-24T03:01:40;2.53;;;2.33;;
49340;SDS011;35209;51.050;13.678;2023-07-24T03:06:42;2.67;;;2.47;;
49340;SDS011;35209;51.050;13.678;2023-07-24T03:11:44;2.80;;;2.17;;
49340;SDS011;35209;51.050;13.678;2023-07-24T03:16:45;2.65;;;2.45;;
49340;SDS011;35209;51.050;13.678;2023-07-24T03:21:47;2.63;;;2.42;;
49340;SDS011;35209;51.050;13.678;2023-07-24T03:26:49;2.22;;;2.13;;
49340;SDS011;35209;51.050;13.678;2023-07-24T03:31:54;2.40;;;2.20;;
49340;SDS011;35209;51.050;13.678;2023-07-24T03:36:56;2.60;;;2.40;;
49340;SDS011;35209;51.050;13.678;2023-07-24T03:41:58;2.78;;;2.58;;
49340;SDS011;35209;51.050;13.678;2023-07-24T03:47:00;3.90;;;3.00;;
49340;SDS011;35209;51.050;13.678;2023-07-24T03:52:01;3.33;;;2.85;;
49340;SDS011;35209;51.050;13.678;2023-07-24T03:57:04;3.03;;;2.70;;
49340;SDS011;35209;51.050;13.678;2023-07-24T04:02:06;3.13;;;2.75;;
49340;SDS011;35209;51.050;13.678;2023-07-24T04:07:11;3.83;;;3.08;;
49340;SDS011;35209;51.050;13.678;2023-07-24T04:12:13;3.22;;;2.95;;
49340;SDS011;35209;51.050;13.678;2023-07-24T04:17:14;3.30;;;2.95;;
49340;SDS011;35209;51.050;13.678;2023-07-24T04:22:17;2.95;;;2.70;;
49340;SDS011;35209;51.050;13.678;2023-07-24T04:27:18;3.22;;;2.85;;
49340;SDS011;35209;51.050;13.678;2023-07-24T04:32:20;3.10;;;2.85;;
49340;SDS011;35209;51.050;13.678;2023-07-24T04:37:22;3.33;;;2.80;;
49340;SDS011;35209;51.050;13.678;2023-07-24T04:42:24;3.63;;;2.85;;
49340;SDS011;35209;51.050;13.678;2023-07-24T04:47:25;2.78;;;2.53;;
49340;SDS011;35209;51.050;13.678;2023-07-24T04:52:30;3.58;;;2.70;;
49340;SDS011;35209;51.050;13.678;2023-07-24T04:57:32;3.22;;;2.97;;
49340;SDS011;35209;51.050;13.678;2023-07-24T05:02:34;3.25;;;2.90;;
49340;SDS011;35209;51.050;13.678;2023-07-24T05:07:36;3.33;;;3.03;;
49340;SDS011;35209;51.050;13.678;2023-07-24T05:12:40;2.50;;;2.30;;
49340;SDS011;35209;51.050;13.678;2023-07-24T05:17:45;3.20;;;2.97;;
49340;SDS011;35209;51.050;13.678;2023-07-24T05:22:47;3.08;;;2.80;;
49340;SDS011;35209;51.050;13.678;2023-07-24T05:27:49;3.63;;;2.88;;
49340;SDS011;35209;51.050;13.678;2023-07-24T05:32:51;3.63;;;3.00;;
49340;SDS011;35209;51.050;13.678;2023-07-24T05:37:53;3.15;;;2.92;;
49340;SDS011;35209;51.050;13.678;2023-07-24T05:42:55;3.45;;;3.15;;
49340;SDS011;35209;51.050;13.678;2023-07-24T05:47:57;3.55;;;3.05;;
49340;SDS011;35209;51.050;13.678;2023-07-24T05:52:59;3.95;;;3.17;;
49340;SDS011;35209;51.050;13.678;2023-07-24T05:58:00;2.85;;;2.65;;
49340;SDS011;35209;51.050;13.678;2023-07-24T06:03:03;3.42;;;3.00;;
49340;SDS011;35209;51.050;13.678;2023-07-24T06:08:08;4.32;;;3.17;;
49340;SDS011;35209;51.050;13.678;2023-07-24T06:13:12;3.47;;;3.00;;
49340;SDS011;35209;51.050;13.678;2023-07-24T06:18:14;3.00;;;2.80;;
49340;SDS011;35209;51.050;13.678;2023-07-24T06:23:16;4.65;;;3.08;;
49340;SDS011;35209;51.050;13.678;2023-07-24T06:28:19;3.60;;;3.30;;
49340;SDS011;35209;51.050;13.678;2023-07-24T06:33:21;3.97;;;3.33;;
49340;SDS011;35209;51.050;13.678;2023-07-24T06:38:23;4.97;;;3.45;;
49340;SDS011;35209;51.050;13.678;2023-07-24T06:43:25;3.88;;;3.47;;
49340;SDS011;35209;51.050;13.678;2023-07-24T06:48:27;3.60;;;3.20;;
49340;SDS011;35209;51.050;13.678;2023-07-24T06:53:29;3.30;;;3.10;;
49340;SDS011;35209;51.050;13.678;2023-07-24T06:58:31;3.90;;;3.60;;
49340;SDS011;35209;51.050;13.678;2023-07-24T07:03:33;3.92;;;3.58;;
49340;SDS011;35209;51.050;13.678;2023-07-24T07:08:36;3.70;;;3.40;;
49340;SDS011;35209;51.050;13.678;2023-07-24T07:13:39;4.20;;;3.80;;
49340;SDS011;35209;51.050;13.678;2023-07-24T07:18:41;3.47;;;3.28;;
49340;SDS011;35209;51.050;13.678;2023-07-24T07:23:42;3.88;;;3.45;;
49340;SDS011;35209;51.050;13.678;2023-07-24T07:28:47;3.73;;;3.43;;
49340;SDS011;35209;51.050;13.678;2023-07-24T07:33:49;3.78;;;3.47;;
49340;SDS011;35209;51.050;13.678;2023-07-24T07:38:51;3.50;;;3.20;;
49340;SDS011;35209;51.050;13.678;2023-07-24T07:43:54;4.20;;;3.42;;
49340;SDS011;35209;51.050;13.678;2023-07-24T07:48:56;3.70;;;3.30;;
49340;SDS011;35209;51.050;13.678;2023-07-24T07:53:57;4.47;;;3.17;;
49340;SDS011;35209;51.050;13.678;2023-07-24T07:58:59;3.00;;;2.80;;
49340;SDS011;35209;51.050;13.678;2023-07-24T08:04:01;3.67;;;3.38;;
49340;SDS011;35209;51.050;13.678;2023-07-24T08:09:03;3.53;;;3.22;;
49340;SDS011;35209;51.050;13.678;2023-07-24T08:14:05;3.80;;;3.50;;
49340;SDS011;35209;51.050;13.678;2023-07-24T08:19:07;3.58;;;3.28;;
49340;SDS011;35209;51.050;13.678;2023-07-24T08:24:09;3.58;;;3.25;;
49340;SDS011;35209;51.050;13.678;2023-07-24T08:29:10;4.55;;;4.15;;
49340;SDS011;35209;51.050;13.678;2023-07-24T08:34:15;4.72;;;4.40;;
49340;SDS011;35209;51.050;13.678;2023-07-24T08:39:17;4.93;;;4.50;;
49340;SDS011;35209;51.050;13.678;2023-07-24T08:44:19;5.05;;;4.65;;
49340;SDS011;35209;51.050;13.678;2023-07-24T08:49:22;5.15;;;4.72;;
49340;SDS011;35209;51.050;13.678;2023-07-24T08:54:24;5.18;;;4.78;;
49340;SDS011;35209;51.050;13.678;2023-07-24T08:59:28;5.18;;;4.78;;
49340;SDS011;35209;51.050;13.678;2023-07-24T09:04:31;5.40;;;5.00;;
49340;SDS011;35209;51.050;13.678;2023-07-24T09:09:33;5.45;;;4.50;;
49340;SDS011;35209;51.050;13.678;2023-07-24T09:14:34;5.50;;;5.10;;
49340;SDS011;35209;51.050;13.678;2023-07-24T09:19:36;5.82;;;5.40;;
49340;SDS011;35209;51.050;13.678;2023-07-24T09:25:00;5.57;;;5.18;;
49340;SDS011;35209;51.050;13.678;2023-07-24T09:30:01;6.75;;;5.82;;
49340;SDS011;35209;51.050;13.678;2023-07-24T09:35:04;5.57;;;5.10;;
49340;SDS011;35209;51.050;13.678;2023-07-24T09:40:08;6.28;;;5.75;;
49340;SDS011;35209;51.050;13.678;2023-07-24T09:45:11;4.93;;;4.53;;
49340;SDS011;35209;51.050;13.678;2023-07-24T09:50:12;5.22;;;4.82;;
49340;SDS011;35209;51.050;13.678;2023-07-24T09:55:49;6.10;;;5.50;;
49340;SDS011;35209;51.050;13.678;2023-07-24T10:00:48;5.32;;;4.88;;
49340;SDS011;35209;51.050;13.678;2023-07-24T10:05:52;6.53;;;5.43;;
49340;SDS011;35209;51.050;13.678;2023-07-24T10:10:54;5.50;;;5.10;;
49340;SDS011;35209;51.050;13.678;2023-07-24T10:15:56;4.57;;;4.18;;
49340;SDS011;35209;51.050;13.678;2023-07-24T10:21:02;4.50;;;4.10;;
49340;SDS011;35209;51.050;13.678;2023-07-24T10:26:15;5.05;;;4.57;;
49340;SDS011;35209;51.050;13.678;2023-07-24T10:36:32;6.72;;;4.40;;
49340;SDS011;35209;51.050;13.678;2023-07-24T10:41:39;5.28;;;4.78;;
49340;SDS011;35209;51.050;13.678;2023-07-24T10:46:46;5.05;;;4.65;;
49340;SDS011;35209;51.050;13.678;2023-07-24T10:51:56;4.97;;;4.57;;
49340;SDS011;35209;51.050;13.678;2023-07-24T10:56:59;5.95;;;5.38;;
49340;SDS011;35209;51.050;13.678;2023-07-24T11:02:03;5.90;;;5.50;;
49340;SDS011;35209;51.050;13.678;2023-07-24T11:07:05;6.22;;;5.70;;
49340;SDS011;35209;51.050;13.678;2023-07-24T11:12:13;6.63;;;5.55;;
49340;SDS011;35209;51.050;13.678;2023-07-24T11:17:16;7.13;;;6.43;;
49340;SDS011;35209;51.050;13.678;2023-07-24T11:22:21;6.28;;;5.78;;
49340;SDS011;35209;51.050;13.678;2023-07-24T11:27:24;6.55;;;6.05;;
49340;SDS011;35209;51.050;13.678;2023-07-24T11:32:27;6.53;;;6.03;;
49340;SDS011;35209;51.050;13.678;2023-07-24T11:37:29;7.20;;;6.70;;
49340;SDS011;35209;51.050;13.678;2023-07-24T11:42:31;5.55;;;5.15;;
49340;SDS011;35209;51.050;13.678;2023-07-24T11:52:49;5.63;;;5.15;;
49340;SDS011;35209;51.050;13.678;2023-07-24T11:57:56;5.47;;;4.88;;
49340;SDS011;35209;51.050;13.678;2023-07-24T12:03:00;6.28;;;5.10;;
49340;SDS011;35209;51.050;13.678;2023-07-24T12:08:03;5.95;;;5.50;;
49340;SDS011;35209;51.050;13.678;2023-07-24T12:13:05;5.95;;;5.45;;
49340;SDS011;35209;51.050;13.678;2023-07-24T12:18:07;6.13;;;5.65;;
49340;SDS011;35209;51.050;13.678;2023-07-24T12:23:09;6.22;;;5.55;;
49340;SDS011;35209;51.050;13.678;2023-07-24T12:28:11;6.45;;;5.85;;
49340;SDS011;35209;51.050;13.678;2023-07-24T12:33:13;6.45;;;5.95;;
49340;SDS011;35209;51.050;13.678;2023-07-24T12:38:15;7.72;;;7.13;;
49340;SDS011;35209;51.050;13.678;2023-07-24T12:43:17;8.98;;;7.32;;
49340;SDS011;35209;51.050;13.678;2023-07-24T12:48:18;7.03;;;6.53;;
49340;SDS011;35209;51.050;13.678;2023-07-24T12:53:21;7.88;;;7.18;;
49340;SDS011;35209;51.050;13.678;2023-07-24T12:58:29;7.57;;;6.93;;
49340;SDS011;35209;51.050;13.678;2023-07-24T13:03:31;8.82;;;6.95;;
49340;SDS011;35209;51.050;13.678;2023-07-24T13:08:33;7.30;;;6.70;;
49340;SDS011;35209;51.050;13.678;2023-07-24T13:13:35;7.47;;;6.88;;
49340;SDS011;35209;51.050;13.678;2023-07-24T13:18:37;7.65;;;6.95;;
49340;SDS011;35209;51.050;13.678;2023-07-24T13:23:39;7.70;;;7.10;;
49340;SDS011;35209;51.050;13.678;2023-07-24T13:28:41;6.95;;;6.18;;
49340;SDS011;35209;51.050;13.678;2023-07-24T13:33:43;7.18;;;6.60;;
49340;SDS011;35209;51.050;13.678;2023-07-24T13:38:45;6.95;;;6.22;;
49340;SDS011;35209;51.050;13.678;2023-07-24T13:43:47;6.60;;;6.10;;
49340;SDS011;35209;51.050;13.678;2023-07-24T13:48:49;6.15;;;5.72;;
49340;SDS011;35209;51.050;13.678;2023-07-24T13:53:51;6.25;;;5.65;;
49340;SDS011;35209;51.050;13.678;2023-07-24T13:58:53;4.28;;;3.88;;
49340;SDS011;35209;51.050;13.678;2023-07-24T14:03:55;4.05;;;3.58;;
49340;SDS011;35209;51.050;13.678;2023-07-24T14:08:57;4.68;;;4.30;;
49340;SDS011;35209;51.050;13.678;2023-07-24T14:13:58;3.42;;;3.22;;
49340;SDS011;35209;51.050;13.678;2023-07-24T14:19:00;3.33;;;2.88;;
49340;SDS011;35209;51.050;13.678;2023-07-24T14:24:02;3.28;;;3.00;;
49340;SDS011;35209;51.050;13.678;2023-07-24T14:29:03;3.17;;;2.88;;
49340;SDS011;35209;51.050;13.678;2023-07-24T14:34:06;4.00;;;3.58;;
49340;SDS011;35209;51.050;13.678;2023-07-24T14:39:12;4.63;;;4.22;;
49340;SDS011;35209;51.050;13.678;2023-07-24T14:44:13;5.72;;;5.22;;
49340;SDS011;35209;51.050;13.678;2023-07-24T14:49:15;4.85;;;4.53;;
49340;SDS011;35209;51.050;13.678;2023-07-24T14:54:17;5.32;;;4.93;;
49340;SDS011;35209;51.050;13.678;2023-07-24T14:59:19;4.95;;;4.55;;
49340;SDS011;35209;51.050;13.678;2023-07-24T15:04:20;5.75;;;5.32;;
49340;SDS011;35209;51.050;13.678;2023-07-24T15:09:22;5.63;;;5.13;;
49340;SDS011;35209;51.050;13.678;2023-07-24T15:14:24;5.50;;;5.10;;
49340;SDS011;35209;51.050;13.678;2023-07-24T15:19:26;5.53;;;5.13;;
49340;SDS011;35209;51.050;13.678;2023-07-24T15:24:28;5.53;;;5.13;;
49340;SDS011;35209;51.050;13.678;2023-07-24T15:29:30;5.28;;;4.88;;
49340;SDS011;35209;51.050;13.678;2023-07-24T15:34:32;6.03;;;5.50;;
49340;SDS011;35209;51.050;13.678;2023-07-24T15:39:37;6.10;;;5.55;;
49340;SDS011;35209;51.050;13.678;2023-07-24T15:44:39;5.95;;;5.45;;
49340;SDS011;35209;51.050;13.678;2023-07-24T15:49:41;6.13;;;5.57;;
49340;SDS011;35209;51.050;13.678;2023-07-24T15:54:43;6.45;;;5.95;;
49340;SDS011;35209;51.050;13.678;2023-07-24T15:59:45;7.93;;;5.75;;
49340;SDS011;35209;51.050;13.678;2023-07-24T16:04:49;5.90;;;5.50;;
49340;SDS011;35209;51.050;13.678;2023-07-24T16:09:53;6.68;;;6.07;;
49340;SDS011;35209;51.050;13.678;2023-07-24T16:14:55;6.70;;;6.20;;
49340;SDS011;35209;51.050;13.678;2023-07-24T16:19:57;6.72;;;6.15;;
49340;SDS011;35209;51.050;13.678;2023-07-24T16:24:58;6.18;;;5.68;;
49340;SDS011;35209;51.050;13.678;2023-07-24T16:30:00;7.10;;;6.50;;
49340;SDS011;35209;51.050;13.678;2023-07-24T16:35:02;7.40;;;6.80;;
49340;SDS011;35209;51.050;13.678;2023-07-24T16:40:04;7.43;;;6.93;;
49340;SDS011;35209;51.050;13.678;2023-07-24T16:45:07;7.20;;;6.70;;
49340;SDS011;35209;51.050;13.678;2023-07-24T16:50:28;7.28;;;6.78;;
49340;SDS011;35209;51.050;13.678;2023-07-24T16:55:31;8.30;;;7.70;;
49340;SDS011;35209;51.050;13.678;2023-07-24T17:00:33;7.57;;;7.07;;
49340;SDS011;35209;51.050;13.678;2023-07-24T17:05:35;7.63;;;7.13;;
49340;SDS011;35209;51.050;13.678;2023-07-24T17:10:41;7.43;;;6.90;;
49340;SDS011;35209;51.050;13.678;2023-07-24T17:15:44;7.47;;;6.88;;
49340;SDS011;35209;51.050;13.678;2023-07-24T17:20:48;7.82;;;7.22;;
49340;SDS011;35209;51.050;13.678;2023-07-24T17:25:51;7.43;;;6.82;;
49340;SDS011;35209;51.050;13.678;2023-07-24T17:30:52;7.43;;;6.82;;
49340;SDS011;35209;51.050;13.678;2023-07-24T17:35:54;7.40;;;6.90;;
49340;SDS011;35209;51.050;13.678;2023-07-24T17:40:56;7.63;;;7.10;;
49340;SDS011;35209;51.050;13.678;2023-07-24T17:46:02;7.03;;;6.50;;
49340;SDS011;35209;51.050;13.678;2023-07-24T17:51:03;7.10;;;6.50;;
49340;SDS011;35209;51.050;13.678;2023-07-24T17:56:05;7.82;;;6.00;;
49340;SDS011;35209;51.050;13.678;2023-07-24T18:01:07;7.55;;;6.97;;
49340;SDS011;35209;51.050;13.678;2023-07-24T18:06:09;7.35;;;6.75;;
49340;SDS011;35209;51.050;13.678;2023-07-24T18:11:11;7.78;;;7.07;;
49340;SDS011;35209;51.050;13.678;2023-07-24T18:16:13;7.28;;;6.78;;
49340;SDS011;35209;51.050;13.678;2023-07-24T18:21:17;7.45;;;6.95;;
49340;SDS011;35209;51.050;13.678;2023-07-24T18:26:19;9.13;;;6.00;;
49340;SDS011;35209;51.050;13.678;2023-07-24T18:31:21;7.05;;;6.45;;
49340;SDS011;35209;51.050;13.678;2023-07-24T18:36:23;6.88;;;6.38;;
49340;SDS011;35209;51.050;13.678;2023-07-24T18:41:24;5.60;;;5.20;;
49340;SDS011;35209;51.050;13.678;2023-07-24T18:46:26;6.18;;;5.78;;
49340;SDS011;35209;51.050;13.678;2023-07-24T18:51:29;6.28;;;5.80;;
49340;SDS011;35209;51.050;13.678;2023-07-24T18:56:31;6.82;;;6.22;;
49340;SDS011;35209;51.050;13.678;2023-07-24T19:01:33;5.93;;;4.95;;
49340;SDS011;35209;51.050;13.678;2023-07-24T19:06:35;11.70;;;3.00;;
49340;SDS011;35209;51.050;13.678;2023-07-24T19:11:39;12.02;;;2.97;;
49340;SDS011;35209;51.050;13.678;2023-07-24T19:16:41;9.52;;;2.30;;
49340;SDS011;35209;51.050;13.678;2023-07-24T19:21:43;7.43;;;1.80;;
49340;SDS011;35209;51.050;13.678;2023-07-24T19:26:45;4.25;;;1.83;;
49340;SDS011;35209;51.050;13.678;2023-07-24T19:31:47;3.00;;;1.38;;
49340;SDS011;35209;51.050;13.678;2023-07-24T19:36:51;4.90;;;2.00;;
49340;SDS011;35209;51.050;13.678;2023-07-24T19:41:53;3.80;;;1.85;;
49340;SDS011;35209;51.050;13.678;2023-07-24T19:46:54;2.83;;;2.17;;
49340;SDS011;35209;51.050;13.678;2023-07-24T19:51:56;3.05;;;1.73;;
49340;SDS011;35209;51.050;13.678;2023-07-24T19:56:58;2.50;;;1.98;;
49340;SDS011;35209;51.050;13.678;2023-07-24T20:02:00;2.30;;;1.63;;
49340;SDS011;35209;51.050;13.678;2023-07-24T20:07:04;4.25;;;2.03;;
49340;SDS011;35209;51.050;13.678;2023-07-24T20:12:07;3.72;;;1.98;;
49340;SDS011;35209;51.050;13.678;2023-07-24T20:17:09;2.33;;;1.73;;
49340;SDS011;35209;51.050;13.678;2023-07-24T20:22:11;4.32;;;1.55;;
49340;SDS011;35209;51.050;13.678;2023-07-24T20:27:14;2.10;;;1.90;;
49340;SDS011;35209;51.050;13.678;2023-07-24T20:32:16;3.50;;;1.88;;
49340;SDS011;35209;51.050;13.678;2023-07-24T20:37:18;3.85;;;1.70;;
49340;SDS011;35209;51.050;13.678;2023-07-24T20:42:21;3.28;;;1.65;;
49340;SDS011;35209;51.050;13.678;2023-07-24T20:47:24;4.20;;;2.00;;
49340;SDS011;35209;51.050;13.678;2023-07-24T20:52:26;2.67;;;1.77;;
49340;SDS011;35209;51.050;13.678;2023-07-24T20:57:28;2.58;;;1.67;;
49340;SDS011;35209;51.050;13.678;2023-07-24T21:02:29;1.85;;;1.48;;
49340;SDS011;35209;51.050;13.678;2023-07-24T21:07:31;2.97;;;2.13;;
49340;SDS011;35209;51.050;13.678;2023-07-24T21:12:33;2.17;;;1.88;;
49340;SDS011;35209;51.050;13.678;2023-07-24T21:17:35;2.88;;;1.75;;
49340;SDS011;35209;51.050;13.678;2023-07-24T21:22:37;2.85;;;1.70;;
49340;SDS011;35209;51.050;13.678;2023-07-24T21:27:39;1.90;;;1.63;;
49340;SDS011;35209;51.050;13.678;2023-07-24T21:32:41;3.50;;;1.80;;
49340;SDS011;35209;51.050;13.678;2023-07-24T21:37:43;2.38;;;2.17;;
49340;SDS011;35209;51.050;13.678;2023-07-24T21:42:45;2.33;;;1.85;;
49340;SDS011;35209;51.050;13.678;2023-07-24T21:47:46;3.13;;;1.80;;
49340;SDS011;35209;51.050;13.678;2023-07-24T21:52:48;2.08;;;1.75;;
49340;SDS011;35209;51.050;13.678;2023-07-24T21:57:50;1.67;;;1.45;;
49340;SDS011;35209;51.050;13.678;2023-07-24T22:02:51;2.80;;;2.00;;
49340;SDS011;35209;51.050;13.678;2023-07-24T22:07:54;2.10;;;1.90;;
49340;SDS011;35209;51.050;13.678;2023-07-24T22:12:55;2.75;;;2.00;;
49340;SDS011;35209;51.050;13.678;2023-07-24T22:17:57;3.25;;;2.30;;
49340;SDS011;35209;51.050;13.678;2023-07-24T22:22:59;2.67;;;1.83;;
49340;SDS011;35209;51.050;13.678;2023-07-24T22:28:01;2.67;;;1.70;;
49340;SDS011;35209;51.050;13.678;2023-07-24T22:33:03;2.25;;;1.70;;
49340;SDS011;35209;51.050;13.678;2023-07-24T22:38:05;1.90;;;1.70;;
49340;SDS011;35209;51.050;13.678;2023-07-24T22:43:06;2.25;;;1.95;;
49340;SDS011;35209;51.050;13.678;2023-07-24T22:48:08;2.80;;;2.13;;
49340;SDS011;35209;51.050;13.678;2023-07-24T22:53:10;4.18;;;2.22;;
49340;SDS011;35209;51.050;13.678;2023-07-24T22:58:12;3.38;;;2.20;;
49340;SDS011;35209;51.050;13.678;2023-07-24T23:03:14;2.10;;;1.90;;
49340;SDS011;35209;51.050;13.678;2023-07-24T23:08:16;2.03;;;1.83;;
49340;SDS011;35209;51.050;13.678;2023-07-24T23:13:36;4.32;;;1.92;;
49340;SDS011;35209;51.050;13.678;2023-07-24T23:18:38;2.40;;;1.77;;
49340;SDS011;35209;51.050;13.678;2023-07-24T23:23:40;2.10;;;1.88;;
49340;SDS011;35209;51.050;13.678;2023-07-24T23:28:41;2.67;;;1.80;;
49340;SDS011;35209;51.050;13.678;2023-07-24T23:33:43;2.70;;;1.63;;
49340;SDS011;35209;51.050;13.678;2023-07-24T23:38:45;2.35;;;1.75;;
49340;SDS011;35209;51.050;13.678;2023-07-24T23:43:46;2.70;;;1.98;;
49340;SDS011;35209;51.050;13.678;2023-07-24T23:48:48;2.55;;;2.05;;
49340;SDS011;35209;51.050;13.678;2023-07-24T23:53:50;2.22;;;1.85;;
49340;SDS011;35209;51.050;13.678;2023-07-24T23:58:51;3.63;;;2.15;;
